sensor_id;sensor_type;location;lat;lon;timestamp;pressure;altitude;pressure_sealevel;temperature;humidity
23168;BME280;32768;42.288;22.686;2022-07-15T00:01:32;95863.25;;;20.86;52.78
23168;BME280;32768;42.288;22.686;2022-07-15T00:03:59;95856.94;;;20.99;52.50
23168;BME280;32768;42.288;22.686;2022-07-15T00:06:24;95852.31;;;20.88;52.99
23168;BME280;32768;42.288;22.686;2022-07-15T00:08:50;95850.41;;;20.70;53.06
23168;BME280;32768;42.288;22.686;2022-07-15T00:11:15;95848.28;;;20.78;53.11
23168;BME280;32768;42.288;22.686;2022-07-15T00:13:40;95850.19;;;20.71;52.64
23168;BME280;32768;42.288;22.686;2022-07-15T00:16:06;95855.53;;;20.71;53.17
23168;BME280;32768;42.288;22.686;2022-07-15T00:18:31;95855.72;;;20.44;53.54
23168;BME280;32768;42.288;22.686;2022-07-15T00:20:56;95845.19;;;20.49;53.57
23168;BME280;32768;42.288;22.686;2022-07-15T00:23:21;95848.03;;;20.55;53.76
23168;BME280;32768;42.288;22.686;2022-07-15T00:25:47;95845.13;;;20.63;53.38
23168;BME280;32768;42.288;22.686;2022-07-15T00:28:12;95850.03;;;20.66;53.58
23168;BME280;32768;42.288;22.686;2022-07-15T00:30:38;95845.63;;;20.46;54.54
23168;BME280;32768;42.288;22.686;2022-07-15T00:33:04;95851.56;;;20.48;54.61
23168;BME280;32768;42.288;22.686;2022-07-15T00:35:30;95852.03;;;20.45;54.97
23168;BME280;32768;42.288;22.686;2022-07-15T00:37:55;95847.31;;;20.41;54.92
23168;BME280;32768;42.288;22.686;2022-07-15T00:40:21;95856.91;;;20.48;54.13
23168;BME280;32768;42.288;22.686;2022-07-15T00:42:46;95854.31;;;20.42;52.72
23168;BME280;32768;42.288;22.686;2022-07-15T00:45:13;95846.84;;;20.51;53.09
23168;BME280;32768;42.288;22.686;2022-07-15T00:47:39;95846.47;;;20.47;52.70
23168;BME280;32768;42.288;22.686;2022-07-15T00:50:05;95841.78;;;20.67;52.18
23168;BME280;32768;42.288;22.686;2022-07-15T00:52:30;95834.63;;;20.36;52.55
23168;BME280;32768;42.288;22.686;2022-07-15T00:54:57;95842.66;;;20.04;53.64
23168;BME280;32768;42.288;22.686;2022-07-15T00:57:23;95846.41;;;19.90;54.19
23168;BME280;32768;42.288;22.686;2022-07-15T00:59:49;95843.91;;;19.95;54.51
23168;BME280;32768;42.288;22.686;2022-07-15T01:02:15;95847.19;;;19.97;54.31
23168;BME280;32768;42.288;22.686;2022-07-15T01:04:41;95849.66;;;19.99;54.57
23168;BME280;32768;42.288;22.686;2022-07-15T01:07:06;95849.94;;;19.84;54.64
23168;BME280;32768;42.288;22.686;2022-07-15T01:09:31;95854.25;;;19.85;55.03
23168;BME280;32768;42.288;22.686;2022-07-15T01:11:56;95855.47;;;19.89;54.89
23168;BME280;32768;42.288;22.686;2022-07-15T01:14:22;95842.69;;;19.98;54.86
23168;BME280;32768;42.288;22.686;2022-07-15T01:16:47;95844.91;;;20.01;54.83
23168;BME280;32768;42.288;22.686;2022-07-15T01:19:12;95845.19;;;19.86;55.37
23168;BME280;32768;42.288;22.686;2022-07-15T01:21:37;95845.03;;;19.74;55.55
23168;BME280;32768;42.288;22.686;2022-07-15T01:24:03;95849.75;;;19.72;55.96
23168;BME280;32768;42.288;22.686;2022-07-15T01:26:28;95850.97;;;19.83;55.67
23168;BME280;32768;42.288;22.686;2022-07-15T01:28:54;95853.97;;;19.48;56.48
23168;BME280;32768;42.288;22.686;2022-07-15T01:31:19;95854.47;;;19.18;57.38
23168;BME280;32768;42.288;22.686;2022-07-15T01:33:44;95850.81;;;19.06;57.92
23168;BME280;32768;42.288;22.686;2022-07-15T01:36:10;95842.75;;;19.19;57.63
23168;BME280;32768;42.288;22.686;2022-07-15T01:38:36;95849.72;;;19.27;57.67
23168;BME280;32768;42.288;22.686;2022-07-15T01:41:01;95852.78;;;19.30;57.73
23168;BME280;32768;42.288;22.686;2022-07-15T01:43:27;95845.00;;;19.35;57.79
23168;BME280;32768;42.288;22.686;2022-07-15T01:45:52;95847.47;;;19.30;57.68
23168;BME280;32768;42.288;22.686;2022-07-15T01:48:17;95847.47;;;19.17;58.02
23168;BME280;32768;42.288;22.686;2022-07-15T01:51:02;95849.94;;;19.25;57.74
23168;BME280;32768;42.288;22.686;2022-07-15T01:53:27;95848.09;;;19.19;57.93
23168;BME280;32768;42.288;22.686;2022-07-15T01:55:53;95840.94;;;19.13;58.28
23168;BME280;32768;42.288;22.686;2022-07-15T01:58:18;95847.94;;;18.94;58.45
23168;BME280;32768;42.288;22.686;2022-07-15T02:00:44;95852.88;;;19.04;58.20
23168;BME280;32768;42.288;22.686;2022-07-15T02:03:09;95846.31;;;18.93;58.40
23168;BME280;32768;42.288;22.686;2022-07-15T02:05:35;95848.16;;;18.92;58.97
23168;BME280;32768;42.288;22.686;2022-07-15T02:08:01;95847.94;;;18.87;59.24
23168;BME280;32768;42.288;22.686;2022-07-15T02:10:26;95854.31;;;18.86;59.40
23168;BME280;32768;42.288;22.686;2022-07-15T02:13:05;95852.47;;;18.87;59.37
23168;BME280;32768;42.288;22.686;2022-07-15T02:15:30;95849.19;;;18.85;59.17
23168;BME280;32768;42.288;22.686;2022-07-15T02:17:55;95852.06;;;18.83;59.22
23168;BME280;32768;42.288;22.686;2022-07-15T02:20:20;95854.13;;;18.88;58.90
23168;BME280;32768;42.288;22.686;2022-07-15T02:22:46;95840.75;;;18.68;59.77
23168;BME280;32768;42.288;22.686;2022-07-15T02:25:11;95852.06;;;18.56;60.60
23168;BME280;32768;42.288;22.686;2022-07-15T02:27:37;95852.47;;;18.67;60.30
23168;BME280;32768;42.288;22.686;2022-07-15T02:30:02;95851.41;;;18.81;59.23
23168;BME280;32768;42.288;22.686;2022-07-15T02:32:28;95853.06;;;18.69;59.41
23168;BME280;32768;42.288;22.686;2022-07-15T02:34:53;95852.88;;;18.84;58.84
23168;BME280;32768;42.288;22.686;2022-07-15T02:37:18;95853.91;;;18.83;58.39
23168;BME280;32768;42.288;22.686;2022-07-15T02:39:44;95849.81;;;18.93;58.02
23168;BME280;32768;42.288;22.686;2022-07-15T02:42:09;95850.59;;;18.74;58.92
23168;BME280;32768;42.288;22.686;2022-07-15T02:44:34;95852.06;;;18.83;58.83
23168;BME280;32768;42.288;22.686;2022-07-15T02:46:59;95850.00;;;18.85;58.75
23168;BME280;32768;42.288;22.686;2022-07-15T02:49:25;95857.38;;;18.90;58.07
23168;BME280;32768;42.288;22.686;2022-07-15T02:51:50;95859.41;;;18.68;58.89
23168;BME280;32768;42.288;22.686;2022-07-15T02:54:15;95862.28;;;18.73;58.69
23168;BME280;32768;42.288;22.686;2022-07-15T02:56:41;95860.88;;;18.50;59.78
23168;BME280;32768;42.288;22.686;2022-07-15T02:59:06;95855.31;;;18.38;60.58
23168;BME280;32768;42.288;22.686;2022-07-15T03:01:31;95847.75;;;18.42;60.91
23168;BME280;32768;42.288;22.686;2022-07-15T03:03:56;95855.53;;;18.84;59.45
23168;BME280;32768;42.288;22.686;2022-07-15T03:06:22;95858.19;;;18.64;60.36
23168;BME280;32768;42.288;22.686;2022-07-15T03:08:47;95855.72;;;18.42;60.67
23168;BME280;32768;42.288;22.686;2022-07-15T03:11:12;95861.47;;;18.39;60.66
23168;BME280;32768;42.288;22.686;2022-07-15T03:13:37;95852.88;;;18.37;61.11
23168;BME280;32768;42.288;22.686;2022-07-15T03:16:03;95862.50;;;18.38;61.36
23168;BME280;32768;42.288;22.686;2022-07-15T03:18:28;95864.94;;;18.26;61.61
23168;BME280;32768;42.288;22.686;2022-07-15T03:20:54;95854.06;;;18.14;61.18
23168;BME280;32768;42.288;22.686;2022-07-15T03:23:19;95863.47;;;18.24;60.64
23168;BME280;32768;42.288;22.686;2022-07-15T03:25:44;95862.69;;;18.43;59.47
23168;BME280;32768;42.288;22.686;2022-07-15T03:28:09;95857.97;;;18.58;58.83
23168;BME280;32768;42.288;22.686;2022-07-15T03:30:35;95865.56;;;18.48;59.36
23168;BME280;32768;42.288;22.686;2022-07-15T03:33:00;95858.97;;;18.31;59.95
23168;BME280;32768;42.288;22.686;2022-07-15T03:35:25;95860.03;;;18.30;60.53
23168;BME280;32768;42.288;22.686;2022-07-15T03:37:51;95854.09;;;18.28;60.10
23168;BME280;32768;42.288;22.686;2022-07-15T03:40:16;95859.41;;;18.21;60.00
23168;BME280;32768;42.288;22.686;2022-07-15T03:42:41;95850.81;;;18.39;59.45
23168;BME280;32768;42.288;22.686;2022-07-15T03:45:07;95850.59;;;18.40;59.32
23168;BME280;32768;42.288;22.686;2022-07-15T03:47:32;95844.25;;;18.35;59.15
23168;BME280;32768;42.288;22.686;2022-07-15T03:49:57;95850.00;;;18.58;58.71
23168;BME280;32768;42.288;22.686;2022-07-15T03:52:23;95850.63;;;18.54;58.33
23168;BME280;32768;42.288;22.686;2022-07-15T03:54:48;95850.19;;;18.37;59.00
23168;BME280;32768;42.288;22.686;2022-07-15T03:57:13;95851.22;;;18.43;59.32
23168;BME280;32768;42.288;22.686;2022-07-15T03:59:39;95854.50;;;18.58;59.06
23168;BME280;32768;42.288;22.686;2022-07-15T04:02:04;95853.06;;;18.82;58.01
23168;BME280;32768;42.288;22.686;2022-07-15T04:04:29;95853.88;;;18.69;58.26
23168;BME280;32768;42.288;22.686;2022-07-15T04:06:54;95858.19;;;18.57;58.97
23168;BME280;32768;42.288;22.686;2022-07-15T04:09:20;95856.75;;;18.54;59.18
23168;BME280;32768;42.288;22.686;2022-07-15T04:11:45;95845.88;;;18.63;58.97
23168;BME280;32768;42.288;22.686;2022-07-15T04:14:11;95847.94;;;18.60;59.22
23168;BME280;32768;42.288;22.686;2022-07-15T04:16:37;95852.63;;;18.78;58.57
23168;BME280;32768;42.288;22.686;2022-07-15T04:19:03;95850.81;;;19.06;57.77
23168;BME280;32768;42.288;22.686;2022-07-15T04:21:28;95853.69;;;19.04;58.37
23168;BME280;32768;42.288;22.686;2022-07-15T04:23:53;95852.00;;;19.10;58.13
23168;BME280;32768;42.288;22.686;2022-07-15T04:26:19;95848.28;;;19.24;57.65
23168;BME280;32768;42.288;22.686;2022-07-15T04:28:44;95849.94;;;19.25;57.63
23168;BME280;32768;42.288;22.686;2022-07-15T04:31:09;95851.94;;;19.30;57.90
23168;BME280;32768;42.288;22.686;2022-07-15T04:33:34;95856.06;;;19.39;57.84
23168;BME280;32768;42.288;22.686;2022-07-15T04:36:00;95856.66;;;19.34;58.11
23168;BME280;32768;42.288;22.686;2022-07-15T04:38:25;95857.25;;;19.50;57.64
23168;BME280;32768;42.288;22.686;2022-07-15T04:40:51;95862.13;;;19.60;57.64
23168;BME280;32768;42.288;22.686;2022-07-15T04:43:16;95858.41;;;19.67;57.22
23168;BME280;32768;42.288;22.686;2022-07-15T04:45:41;95864.97;;;19.78;57.25
23168;BME280;32768;42.288;22.686;2022-07-15T04:48:06;95859.00;;;20.15;55.96
23168;BME280;32768;42.288;22.686;2022-07-15T04:50:52;95859.00;;;20.15;56.10
23168;BME280;32768;42.288;22.686;2022-07-15T04:53:18;95867.84;;;20.15;55.99
23168;BME280;32768;42.288;22.686;2022-07-15T04:55:44;95856.22;;;20.03;56.06
23168;BME280;32768;42.288;22.686;2022-07-15T04:58:09;95860.78;;;19.96;56.24
23168;BME280;32768;42.288;22.686;2022-07-15T05:00:34;95856.66;;;19.93;56.30
23168;BME280;32768;42.288;22.686;2022-07-15T05:02:59;95863.59;;;20.01;56.39
23168;BME280;32768;42.288;22.686;2022-07-15T05:05:25;95864.84;;;19.98;56.43
23168;BME280;32768;42.288;22.686;2022-07-15T05:07:50;95870.28;;;19.85;56.82
23168;BME280;32768;42.288;22.686;2022-07-15T05:10:16;95865.66;;;19.99;56.55
23168;BME280;32768;42.288;22.686;2022-07-15T05:12:41;95866.50;;;19.99;56.52
23168;BME280;32768;42.288;22.686;2022-07-15T05:15:06;95870.34;;;20.10;56.38
23168;BME280;32768;42.288;22.686;2022-07-15T05:17:33;95869.78;;;20.01;56.07
23168;BME280;32768;42.288;22.686;2022-07-15T05:19:59;95867.56;;;20.23;55.93
23168;BME280;32768;42.288;22.686;2022-07-15T05:22:24;95875.34;;;20.32;55.93
23168;BME280;32768;42.288;22.686;2022-07-15T05:24:50;95869.22;;;20.24;55.98
23168;BME280;32768;42.288;22.686;2022-07-15T05:27:15;95866.28;;;20.33;55.95
23168;BME280;32768;42.288;22.686;2022-07-15T05:29:41;95870.75;;;20.39;55.97
23168;BME280;32768;42.288;22.686;2022-07-15T05:32:06;95874.28;;;20.64;54.90
23168;BME280;32768;42.288;22.686;2022-07-15T05:34:32;95869.00;;;20.58;55.08
23168;BME280;32768;42.288;22.686;2022-07-15T05:36:57;95870.59;;;20.65;55.22
23168;BME280;32768;42.288;22.686;2022-07-15T05:39:22;95867.75;;;20.85;54.76
23168;BME280;32768;42.288;22.686;2022-07-15T05:41:48;95863.50;;;20.78;54.76
23168;BME280;32768;42.288;22.686;2022-07-15T05:44:13;95863.78;;;20.95;54.86
23168;BME280;32768;42.288;22.686;2022-07-15T05:46:38;95861.63;;;21.03;54.67
23168;BME280;32768;42.288;22.686;2022-07-15T05:49:04;95856.94;;;21.17;54.20
23168;BME280;32768;42.288;22.686;2022-07-15T05:51:30;95863.50;;;21.21;53.82
23168;BME280;32768;42.288;22.686;2022-07-15T05:53:55;95864.31;;;21.40;53.95
23168;BME280;32768;42.288;22.686;2022-07-15T05:56:20;95860.09;;;21.51;53.05
23168;BME280;32768;42.288;22.686;2022-07-15T05:58:47;95859.22;;;21.57;53.28
23168;BME280;32768;42.288;22.686;2022-07-15T06:01:12;95857.34;;;21.58;52.65
23168;BME280;32768;42.288;22.686;2022-07-15T06:03:37;95860.94;;;21.52;53.57
23168;BME280;32768;42.288;22.686;2022-07-15T06:06:03;95860.75;;;21.84;52.42
23168;BME280;32768;42.288;22.686;2022-07-15T06:20:32;95855.22;;;21.97;51.78
23168;BME280;32768;42.288;22.686;2022-07-15T06:22:57;95858.22;;;22.19;51.24
23168;BME280;32768;42.288;22.686;2022-07-15T06:25:22;95852.38;;;22.22;50.53
23168;BME280;32768;42.288;22.686;2022-07-15T06:27:48;95851.53;;;22.28;50.46
23168;BME280;32768;42.288;22.686;2022-07-15T06:30:13;95848.97;;;22.33;50.47
23168;BME280;32768;42.288;22.686;2022-07-15T06:32:39;95844.47;;;22.46;51.28
23168;BME280;32768;42.288;22.686;2022-07-15T06:35:04;95843.06;;;22.55;50.15
23168;BME280;32768;42.288;22.686;2022-07-15T06:37:30;95842.50;;;22.77;49.96
23168;BME280;32768;42.288;22.686;2022-07-15T06:39:55;95838.31;;;22.92;48.87
23168;BME280;32768;42.288;22.686;2022-07-15T06:42:23;95836.47;;;22.81;49.52
23168;BME280;32768;42.288;22.686;2022-07-15T06:44:49;95838.88;;;22.94;48.76
23168;BME280;32768;42.288;22.686;2022-07-15T06:47:14;95836.81;;;23.08;48.26
23168;BME280;32768;42.288;22.686;2022-07-15T06:49:39;95846.53;;;23.09;48.33
23168;BME280;32768;42.288;22.686;2022-07-15T06:52:05;95843.47;;;23.18;48.02
23168;BME280;32768;42.288;22.686;2022-07-15T06:54:30;95837.75;;;23.26;48.64
23168;BME280;32768;42.288;22.686;2022-07-15T06:56:56;95832.72;;;23.41;48.28
23168;BME280;32768;42.288;22.686;2022-07-15T06:59:21;95834.66;;;23.58;47.87
23168;BME280;32768;42.288;22.686;2022-07-15T07:01:47;95833.31;;;23.72;45.48
23168;BME280;32768;42.288;22.686;2022-07-15T07:04:12;95831.84;;;23.64;44.92
23168;BME280;32768;42.288;22.686;2022-07-15T07:06:38;95834.72;;;23.75;47.09
23168;BME280;32768;42.288;22.686;2022-07-15T07:09:03;95834.00;;;23.79;46.76
23168;BME280;32768;42.288;22.686;2022-07-15T07:11:29;95835.88;;;23.91;46.67
23168;BME280;32768;42.288;22.686;2022-07-15T07:13:54;95826.78;;;24.09;46.28
23168;BME280;32768;42.288;22.686;2022-07-15T07:16:19;95821.59;;;24.36;45.31
23168;BME280;32768;42.288;22.686;2022-07-15T07:18:45;95816.88;;;24.43;45.38
23168;BME280;32768;42.288;22.686;2022-07-15T07:21:11;95823.28;;;24.54;45.17
23168;BME280;32768;42.288;22.686;2022-07-15T07:23:36;95828.03;;;24.63;44.27
23168;BME280;32768;42.288;22.686;2022-07-15T07:26:04;95816.91;;;24.94;43.21
23168;BME280;32768;42.288;22.686;2022-07-15T07:28:30;95823.94;;;24.95;44.09
23168;BME280;32768;42.288;22.686;2022-07-15T07:30:55;95822.59;;;24.97;44.36
23168;BME280;32768;42.288;22.686;2022-07-15T07:33:20;95817.13;;;25.26;43.59
23168;BME280;32768;42.288;22.686;2022-07-15T07:35:46;95811.63;;;25.21;43.81
23168;BME280;32768;42.288;22.686;2022-07-15T07:38:11;95814.41;;;25.26;43.44
23168;BME280;32768;42.288;22.686;2022-07-15T07:40:37;95815.56;;;25.52;41.01
23168;BME280;32768;42.288;22.686;2022-07-15T07:43:02;95812.00;;;25.47;40.41
23168;BME280;32768;42.288;22.686;2022-07-15T07:45:28;95809.13;;;25.53;39.24
23168;BME280;32768;42.288;22.686;2022-07-15T07:47:54;95804.38;;;25.61;41.19
23168;BME280;32768;42.288;22.686;2022-07-15T08:02:08;95788.22;;;25.88;37.36
23168;BME280;32768;42.288;22.686;2022-07-15T08:04:34;95786.03;;;26.07;37.15
23168;BME280;32768;42.288;22.686;2022-07-15T08:06:59;95790.31;;;26.08;37.07
23168;BME280;32768;42.288;22.686;2022-07-15T08:09:24;95797.09;;;26.10;37.68
23168;BME280;32768;42.288;22.686;2022-07-15T08:11:49;95781.88;;;26.26;38.47
23168;BME280;32768;42.288;22.686;2022-07-15T08:14:15;95777.91;;;26.34;37.84
23168;BME280;32768;42.288;22.686;2022-07-15T08:16:40;95776.91;;;26.45;38.62
23168;BME280;32768;42.288;22.686;2022-07-15T08:19:08;95777.28;;;26.59;37.34
23168;BME280;32768;42.288;22.686;2022-07-15T08:21:33;95775.34;;;26.49;36.82
23168;BME280;32768;42.288;22.686;2022-07-15T08:23:58;95781.41;;;26.62;36.50
23168;BME280;32768;42.288;22.686;2022-07-15T08:26:24;95774.50;;;26.81;35.18
23168;BME280;32768;42.288;22.686;2022-07-15T08:28:50;95768.88;;;26.83;34.85
23168;BME280;32768;42.288;22.686;2022-07-15T08:31:15;95777.28;;;26.97;35.05
23168;BME280;32768;42.288;22.686;2022-07-15T08:33:41;95769.06;;;27.19;34.15
23168;BME280;32768;42.288;22.686;2022-07-15T08:36:07;95772.41;;;26.24;37.02
23168;BME280;32768;42.288;22.686;2022-07-15T08:38:32;95772.56;;;26.07;37.87
23168;BME280;32768;42.288;22.686;2022-07-15T08:40:57;95767.94;;;26.67;37.93
23168;BME280;32768;42.288;22.686;2022-07-15T08:43:22;95761.97;;;26.32;36.65
23168;BME280;32768;42.288;22.686;2022-07-15T08:45:48;95759.22;;;26.27;38.08
23168;BME280;32768;42.288;22.686;2022-07-15T08:48:13;95759.72;;;26.89;35.19
23168;BME280;32768;42.288;22.686;2022-07-15T08:50:39;95749.84;;;26.62;37.81
23168;BME280;32768;42.288;22.686;2022-07-15T08:53:06;95754.56;;;26.50;37.29
23168;BME280;32768;42.288;22.686;2022-07-15T08:55:31;95758.72;;;26.63;36.92
23168;BME280;32768;42.288;22.686;2022-07-15T08:57:57;95744.50;;;27.20;36.27
23168;BME280;32768;42.288;22.686;2022-07-15T09:00:23;95745.72;;;27.45;36.80
23168;BME280;32768;42.288;22.686;2022-07-15T09:02:56;95748.97;;;27.52;36.49
23168;BME280;32768;42.288;22.686;2022-07-15T09:05:25;95745.19;;;27.58;37.15
23168;BME280;32768;42.288;22.686;2022-07-15T09:08:04;95746.84;;;27.80;36.92
23168;BME280;32768;42.288;22.686;2022-07-15T09:13:21;95739.09;;;27.99;34.52
23168;BME280;32768;42.288;22.686;2022-07-15T09:15:47;95734.78;;;27.93;34.28
23168;BME280;32768;42.288;22.686;2022-07-15T09:18:14;95730.22;;;28.19;31.76
23168;BME280;32768;42.288;22.686;2022-07-15T09:20:40;95734.78;;;28.24;32.26
23168;BME280;32768;42.288;22.686;2022-07-15T09:23:06;95726.13;;;28.16;32.88
23168;BME280;32768;42.288;22.686;2022-07-15T09:25:32;95731.78;;;27.89;31.45
23168;BME280;32768;42.288;22.686;2022-07-15T09:27:59;95730.44;;;28.28;30.62
23168;BME280;32768;42.288;22.686;2022-07-15T09:30:27;95721.75;;;27.79;32.59
23168;BME280;32768;42.288;22.686;2022-07-15T09:33:12;95725.31;;;28.47;32.87
23168;BME280;32768;42.288;22.686;2022-07-15T09:38:39;95726.69;;;28.29;34.08
23168;BME280;32768;42.288;22.686;2022-07-15T09:41:05;95723.72;;;28.30;34.29
23168;BME280;32768;42.288;22.686;2022-07-15T09:43:37;95722.91;;;28.55;33.23
23168;BME280;32768;42.288;22.686;2022-07-15T09:46:06;95728.03;;;28.26;31.24
23168;BME280;32768;42.288;22.686;2022-07-15T09:48:32;95723.16;;;28.23;30.58
23168;BME280;32768;42.288;22.686;2022-07-15T09:51:04;95721.53;;;28.32;31.45
23168;BME280;32768;42.288;22.686;2022-07-15T09:53:29;95725.31;;;28.31;32.26
23168;BME280;32768;42.288;22.686;2022-07-15T09:55:57;95715.06;;;28.59;31.28
23168;BME280;32768;42.288;22.686;2022-07-15T09:58:23;95717.75;;;28.69;30.67
23168;BME280;32768;42.288;22.686;2022-07-15T10:00:48;95715.28;;;28.83;31.26
23168;BME280;32768;42.288;22.686;2022-07-15T10:03:16;95717.13;;;29.03;30.44
23168;BME280;32768;42.288;22.686;2022-07-15T10:05:41;95721.84;;;29.42;29.54
23168;BME280;32768;42.288;22.686;2022-07-15T10:08:09;95712.75;;;29.18;29.05
23168;BME280;32768;42.288;22.686;2022-07-15T10:10:34;95710.59;;;29.09;30.07
23168;BME280;32768;42.288;22.686;2022-07-15T10:15:49;95701.34;;;29.26;29.03
23168;BME280;32768;42.288;22.686;2022-07-15T10:18:19;95698.19;;;28.98;30.96
23168;BME280;32768;42.288;22.686;2022-07-15T10:28:42;95682.03;;;29.43;28.34
23168;BME280;32768;42.288;22.686;2022-07-15T10:33:41;95682.19;;;29.62;29.99
23168;BME280;32768;42.288;22.686;2022-07-15T10:36:06;95681.63;;;29.65;28.23
23168;BME280;32768;42.288;22.686;2022-07-15T10:38:38;95678.34;;;29.73;27.76
23168;BME280;32768;42.288;22.686;2022-07-15T10:43:51;95667.25;;;30.09;27.43
23168;BME280;32768;42.288;22.686;2022-07-15T10:48:42;95665.19;;;29.96;27.98
23168;BME280;32768;42.288;22.686;2022-07-15T10:51:08;95664.53;;;29.14;29.75
23168;BME280;32768;42.288;22.686;2022-07-15T10:53:37;95659.59;;;29.32;29.71
23168;BME280;32768;42.288;22.686;2022-07-15T10:56:26;95665.41;;;29.99;30.06
23168;BME280;32768;42.288;22.686;2022-07-15T11:01:32;95656.38;;;30.14;29.47
23168;BME280;32768;42.288;22.686;2022-07-15T11:04:14;95655.84;;;30.12;29.15
23168;BME280;32768;42.288;22.686;2022-07-15T11:12:09;95648.53;;;29.73;30.22
23168;BME280;32768;42.288;22.686;2022-07-15T11:17:06;95642.81;;;30.43;27.30
23168;BME280;32768;42.288;22.686;2022-07-15T11:19:31;95643.50;;;29.96;29.17
23168;BME280;32768;42.288;22.686;2022-07-15T11:21:57;95648.50;;;29.78;28.76
23168;BME280;32768;42.288;22.686;2022-07-15T11:24:22;95643.88;;;30.13;28.47
23168;BME280;32768;42.288;22.686;2022-07-15T11:26:47;95643.97;;;30.37;28.64
23168;BME280;32768;42.288;22.686;2022-07-15T11:29:13;95640.47;;;30.37;28.32
23168;BME280;32768;42.288;22.686;2022-07-15T11:31:39;95644.28;;;30.31;29.54
23168;BME280;32768;42.288;22.686;2022-07-15T11:34:05;95641.34;;;30.56;27.54
23168;BME280;32768;42.288;22.686;2022-07-15T11:36:31;95632.63;;;30.30;27.98
23168;BME280;32768;42.288;22.686;2022-07-15T11:38:56;95632.56;;;30.64;27.92
23168;BME280;32768;42.288;22.686;2022-07-15T11:41:23;95627.38;;;30.44;27.79
23168;BME280;32768;42.288;22.686;2022-07-15T11:44:09;95627.59;;;30.72;29.66
23168;BME280;32768;42.288;22.686;2022-07-15T11:46:53;95620.66;;;30.84;27.03
23168;BME280;32768;42.288;22.686;2022-07-15T11:49:37;95615.88;;;30.76;27.73
23168;BME280;32768;42.288;22.686;2022-07-15T11:52:11;95613.59;;;31.51;27.63
23168;BME280;32768;42.288;22.686;2022-07-15T11:54:38;95612.09;;;31.77;26.99
23168;BME280;32768;42.288;22.686;2022-07-15T11:57:05;95615.09;;;31.76;27.11
23168;BME280;32768;42.288;22.686;2022-07-15T11:59:33;95605.81;;;31.63;26.89
23168;BME280;32768;42.288;22.686;2022-07-15T12:02:00;95612.75;;;31.69;28.15
23168;BME280;32768;42.288;22.686;2022-07-15T12:04:26;95601.22;;;31.77;26.89
23168;BME280;32768;42.288;22.686;2022-07-15T12:06:51;95601.34;;;31.86;26.31
23168;BME280;32768;42.288;22.686;2022-07-15T12:09:17;95613.53;;;31.56;27.87
23168;BME280;32768;42.288;22.686;2022-07-15T12:11:42;95605.03;;;31.76;24.50
23168;BME280;32768;42.288;22.686;2022-07-15T12:14:12;95604.63;;;32.02;23.23
23168;BME280;32768;42.288;22.686;2022-07-15T12:19:06;95600.69;;;32.41;23.78
23168;BME280;32768;42.288;22.686;2022-07-15T12:21:32;95607.69;;;33.03;21.80
23168;BME280;32768;42.288;22.686;2022-07-15T12:24:08;95601.34;;;32.66;21.61
23168;BME280;32768;42.288;22.686;2022-07-15T12:26:35;95595.56;;;32.53;22.99
23168;BME280;32768;42.288;22.686;2022-07-15T12:29:04;95598.41;;;32.90;22.66
23168;BME280;32768;42.288;22.686;2022-07-15T12:31:30;95596.16;;;33.06;24.66
23168;BME280;32768;42.288;22.686;2022-07-15T12:33:57;95596.22;;;33.42;21.89
23168;BME280;32768;42.288;22.686;2022-07-15T12:36:24;95596.66;;;33.72;22.14
23168;BME280;32768;42.288;22.686;2022-07-15T12:41:30;95597.56;;;33.67;21.73
23168;BME280;32768;42.288;22.686;2022-07-15T12:43:56;95594.31;;;33.65;21.50
23168;BME280;32768;42.288;22.686;2022-07-15T12:49:05;95597.94;;;33.97;21.33
23168;BME280;32768;42.288;22.686;2022-07-15T12:51:32;95600.09;;;34.09;20.79
23168;BME280;32768;42.288;22.686;2022-07-15T12:54:04;95601.50;;;34.29;21.46
23168;BME280;32768;42.288;22.686;2022-07-15T12:56:31;95605.16;;;34.87;20.68
23168;BME280;32768;42.288;22.686;2022-07-15T12:58:56;95598.28;;;35.07;20.77
23168;BME280;32768;42.288;22.686;2022-07-15T13:01:21;95600.94;;;35.47;20.83
23168;BME280;32768;42.288;22.686;2022-07-15T13:03:47;95600.47;;;35.63;20.48
23168;BME280;32768;42.288;22.686;2022-07-15T13:06:12;95592.91;;;35.68;20.75
23168;BME280;32768;42.288;22.686;2022-07-15T13:08:39;95607.22;;;36.09;19.30
23168;BME280;32768;42.288;22.686;2022-07-15T13:11:06;95601.28;;;35.89;17.94
23168;BME280;32768;42.288;22.686;2022-07-15T13:13:32;95604.56;;;36.39;17.61
23168;BME280;32768;42.288;22.686;2022-07-15T13:15:58;95600.53;;;36.45;18.94
23168;BME280;32768;42.288;22.686;2022-07-15T13:18:24;95601.75;;;36.56;18.84
23168;BME280;32768;42.288;22.686;2022-07-15T13:20:50;95595.22;;;36.40;18.88
23168;BME280;32768;42.288;22.686;2022-07-15T13:23:16;95601.56;;;36.14;18.75
23168;BME280;32768;42.288;22.686;2022-07-15T13:25:42;95596.44;;;36.04;19.51
23168;BME280;32768;42.288;22.686;2022-07-15T13:28:08;95591.56;;;36.27;19.53
23168;BME280;32768;42.288;22.686;2022-07-15T13:30:34;95588.69;;;36.06;19.79
23168;BME280;32768;42.288;22.686;2022-07-15T13:33:00;95587.66;;;36.37;19.59
23168;BME280;32768;42.288;22.686;2022-07-15T13:35:25;95581.75;;;36.73;19.81
23168;BME280;32768;42.288;22.686;2022-07-15T13:37:50;95581.47;;;36.57;18.85
23168;BME280;32768;42.288;22.686;2022-07-15T13:40:16;95578.97;;;36.82;19.53
23168;BME280;32768;42.288;22.686;2022-07-15T13:42:41;95582.09;;;37.01;19.60
23168;BME280;32768;42.288;22.686;2022-07-15T13:45:07;95576.88;;;36.79;19.42
23168;BME280;32768;42.288;22.686;2022-07-15T13:47:33;95574.13;;;37.09;18.16
23168;BME280;32768;42.288;22.686;2022-07-15T13:49:59;95573.19;;;37.04;18.75
23168;BME280;32768;42.288;22.686;2022-07-15T13:52:49;95580.13;;;36.34;19.80